createdAt,value
2023-04-18T00:00:24.683Z,19.87
2023-04-18T00:03:16.043Z,27.30
2023-04-18T00:06:06.532Z,22.87
2023-04-18T00:08:54.983Z,22.87
2023-04-18T00:11:43.599Z,23.07
2023-04-18T00:14:34.222Z,23.80
2023-04-18T00:17:22.634Z,21.13
2023-04-18T00:20:12.795Z,24.97
2023-04-18T00:23:02.780Z,26.13
2023-04-18T00:25:51.296Z,23.53
2023-04-18T00:28:39.785Z,21.77
2023-04-18T00:31:28.187Z,25.80
2023-04-18T00:34:16.587Z,24.13
2023-04-18T00:37:07.026Z,24.00
2023-04-18T00:39:56.873Z,26.40
2023-04-18T00:42:45.297Z,22.80
2023-04-18T00:45:35.770Z,24.33
2023-04-18T00:48:24.682Z,26.10
2023-04-18T00:51:13.399Z,22.60
2023-04-18T00:54:01.953Z,26.57
2023-04-18T00:56:51.717Z,24.13
2023-04-18T00:59:40.659Z,25.00
2023-04-18T01:02:30.571Z,23.30
2023-04-18T01:05:21.194Z,26.00
2023-04-18T01:08:09.567Z,27.10
2023-04-18T01:10:57.989Z,23.97
2023-04-18T01:14:01.572Z,23.50
2023-04-18T01:16:49.954Z,26.23
2023-04-18T01:19:40.739Z,27.83
2023-04-18T01:22:29.924Z,25.90
2023-04-18T01:25:19.708Z,29.13
2023-04-18T01:28:09.080Z,26.83
2023-04-18T01:30:57.587Z,25.13
2023-04-18T01:33:46.068Z,25.37
2023-04-18T01:36:35.017Z,27.10
2023-04-18T01:39:23.997Z,24.80
2023-04-18T01:42:15.254Z,26.23
2023-04-18T01:45:07.325Z,26.13
2023-04-18T01:47:55.948Z,26.23
2023-04-18T01:50:44.334Z,26.43
2023-04-18T01:53:33.489Z,26.93
2023-04-18T01:56:22.135Z,26.37
2023-04-18T01:59:11.931Z,30.30
2023-04-18T02:02:00.726Z,27.67
2023-04-18T02:04:49.147Z,30.90
2023-04-18T02:07:37.521Z,29.10
2023-04-18T02:10:26.065Z,26.00
2023-04-18T02:13:15.116Z,27.00
2023-04-18T02:16:05.080Z,28.47
2023-04-18T02:18:53.609Z,27.33
2023-04-18T02:21:44.497Z,25.83
2023-04-18T02:24:32.871Z,30.80
2023-04-18T02:27:21.196Z,29.90
2023-04-18T02:30:10.545Z,29.03
2023-04-18T02:33:00.393Z,32.33
2023-04-18T02:35:48.720Z,28.23
2023-04-18T02:38:37.626Z,28.90
2023-04-18T02:41:26.109Z,31.37
2023-04-18T02:44:17.144Z,27.57
2023-04-18T02:47:05.907Z,27.70
2023-04-18T02:49:58.323Z,27.87
2023-04-18T02:52:48.756Z,29.63
2023-04-18T02:55:41.673Z,30.70
2023-04-18T02:58:29.999Z,28.53
2023-04-18T03:01:19.007Z,28.27
2023-04-18T03:04:15.366Z,31.73
2023-04-18T03:07:17.071Z,37.23
2023-04-18T03:10:06.422Z,28.53
2023-04-18T03:12:57.189Z,30.07
2023-04-18T03:15:45.967Z,30.87
2023-04-18T03:18:35.057Z,28.17
2023-04-18T03:21:24.163Z,31.13
2023-04-18T03:24:14.298Z,33.70
2023-04-18T03:27:06.083Z,33.23
2023-04-18T03:29:55.030Z,28.47
2023-04-18T03:32:44.236Z,34.33
2023-04-18T03:35:32.705Z,33.33
2023-04-18T03:38:21.523Z,29.90
2023-04-18T03:41:11.631Z,32.23
2023-04-18T03:44:00.441Z,30.73
2023-04-18T03:46:49.720Z,27.77
2023-04-18T03:49:39.046Z,32.80
2023-04-18T03:52:29.625Z,31.13
2023-04-18T03:55:19.026Z,30.27
2023-04-18T03:58:09.472Z,32.57
2023-04-18T04:00:58.125Z,33.03
2023-04-18T04:03:47.398Z,30.87
2023-04-18T04:06:36.493Z,29.20
2023-04-18T04:09:25.177Z,30.73
2023-04-18T04:12:13.599Z,34.03
2023-04-18T04:15:03.406Z,37.63
2023-04-18T04:17:52.464Z,32.40
2023-04-18T04:20:42.534Z,31.23
2023-04-18T04:23:35.364Z,33.60
2023-04-18T04:26:24.094Z,33.63
2023-04-18T04:29:21.600Z,39.83
2023-04-18T04:32:12.924Z,31.80
2023-04-18T04:35:02.070Z,32.03
2023-04-18T04:37:52.794Z,32.30
2023-04-18T04:40:47.448Z,34.37
2023-04-18T04:43:36.040Z,33.33
2023-04-18T04:46:24.511Z,32.50
2023-04-18T04:49:14.367Z,32.13
2023-04-18T04:52:03.942Z,36.20
2023-04-18T04:54:53.120Z,38.37
2023-04-18T04:57:44.774Z,31.63
2023-04-18T05:00:47.186Z,35.80
2023-04-18T05:03:36.697Z,34.90
2023-04-18T05:06:27.679Z,33.80
2023-04-18T05:09:16.180Z,34.70
2023-04-18T05:12:05.314Z,36.37
2023-04-18T05:14:53.799Z,33.50
2023-04-18T05:17:42.276Z,35.43
2023-04-18T05:20:30.752Z,36.27
2023-04-18T05:23:20.493Z,37.63
2023-04-18T05:26:08.999Z,35.10
2023-04-18T05:28:57.382Z,36.23
2023-04-18T05:31:45.771Z,34.13
2023-04-18T05:34:38.046Z,34.60
2023-04-18T05:37:27.267Z,35.43
2023-04-18T05:40:17.204Z,35.97
2023-04-18T05:43:05.797Z,34.03
2023-04-18T05:45:55.915Z,35.10
2023-04-18T05:48:46.134Z,33.50
2023-04-18T05:51:34.516Z,31.80
2023-04-18T05:54:22.882Z,33.50
2023-04-18T05:57:12.736Z,33.37
2023-04-18T06:00:01.137Z,32.57
2023-04-18T06:02:49.744Z,34.47
2023-04-18T06:05:38.541Z,34.23
2023-04-18T06:08:26.993Z,33.43
2023-04-18T06:11:15.486Z,40.07
2023-04-18T06:14:05.407Z,35.17
2023-04-18T06:16:53.802Z,43.83
2023-04-18T06:19:42.171Z,32.80
2023-04-18T06:22:30.526Z,33.13
2023-04-18T06:25:19.335Z,31.60
2023-04-18T06:28:07.754Z,32.27
2023-04-18T06:30:57.467Z,33.37
2023-04-18T06:33:45.900Z,31.70
2023-04-18T06:36:34.458Z,30.00
2023-04-18T06:39:22.876Z,28.63
2023-04-18T06:42:11.289Z,30.63
2023-04-18T06:45:07.036Z,31.30
2023-04-18T06:47:56.847Z,27.70
2023-04-18T06:50:45.685Z,32.30
2023-04-18T06:53:34.064Z,28.40
2023-04-18T06:56:22.563Z,28.20
2023-04-18T06:59:11.061Z,27.73
2023-04-18T07:01:59.524Z,27.60
2023-04-18T07:04:49.274Z,30.97
2023-04-18T07:07:37.828Z,27.97
2023-04-18T07:10:26.230Z,27.33
2023-04-18T07:13:14.577Z,30.57
2023-04-18T07:16:03.075Z,30.53
2023-04-18T07:18:51.789Z,26.63
2023-04-18T07:21:43.677Z,26.93
2023-04-18T07:24:32.208Z,27.60
2023-04-18T07:27:20.626Z,24.90
2023-04-18T07:30:10.045Z,25.23
2023-04-18T07:32:58.483Z,25.10
2023-04-18T07:35:46.921Z,21.57
2023-04-18T07:38:36.689Z,23.20
2023-04-18T07:41:25.089Z,25.70
2023-04-18T07:44:13.689Z,23.20
2023-04-18T07:47:02.342Z,21.77
2023-04-18T07:49:50.819Z,25.10
2023-04-18T07:52:39.600Z,20.00
2023-04-18T07:55:29.445Z,21.70
2023-04-18T07:58:17.864Z,22.70
2023-04-18T08:01:07.082Z,23.50
2023-04-18T08:03:57.777Z,22.23
2023-04-18T08:06:46.364Z,21.23
2023-04-18T08:09:34.843Z,23.33
2023-04-18T08:12:24.764Z,19.47
2023-04-18T08:15:13.265Z,21.10
2023-04-18T08:18:02.044Z,21.43
2023-04-18T08:20:50.445Z,21.97
2023-04-18T08:23:38.986Z,20.83
2023-04-18T08:26:27.367Z,24.23
2023-04-18T08:29:17.118Z,21.80
2023-04-18T08:32:07.935Z,19.37
2023-04-18T08:34:57.284Z,22.73
2023-04-18T08:37:45.742Z,24.37
2023-04-18T08:40:34.112Z,25.27
2023-04-18T08:43:22.701Z,25.03
2023-04-18T08:46:12.741Z,20.20
2023-04-18T08:49:04.585Z,23.73
2023-04-18T08:51:54.012Z,21.17
2023-04-18T08:54:43.076Z,20.47
2023-04-18T08:57:33.351Z,19.27
2023-04-18T09:00:22.743Z,22.30
2023-04-18T09:03:15.704Z,21.17
2023-04-18T09:06:09.325Z,21.60
2023-04-18T09:08:58.930Z,23.70
2023-04-18T09:11:47.995Z,24.53
2023-04-18T09:14:37.579Z,19.40
2023-04-18T09:17:34.882Z,26.00
2023-04-18T09:20:35.790Z,21.40
2023-04-18T09:23:26.200Z,21.83
2023-04-18T09:26:14.698Z,21.50
2023-04-18T09:29:03.269Z,22.13
2023-04-18T09:31:57.332Z,21.23
2023-04-18T09:34:45.834Z,20.60
2023-04-18T09:37:36.357Z,21.80
2023-04-18T09:40:25.086Z,21.57
2023-04-18T09:43:20.527Z,21.17
2023-04-18T09:46:09.448Z,21.10
2023-04-18T09:48:57.864Z,20.53
2023-04-18T09:51:46.782Z,22.03
2023-04-18T09:54:39.707Z,21.67
2023-04-18T09:57:29.631Z,20.90
2023-04-18T10:00:24.365Z,20.90
2023-04-18T10:03:14.331Z,22.47
2023-04-18T10:06:02.950Z,21.10
2023-04-18T10:08:52.669Z,21.47
2023-04-18T10:11:42.534Z,21.40
2023-04-18T10:14:31.646Z,19.80
2023-04-18T10:17:21.595Z,22.87
2023-04-18T10:20:11.903Z,21.20
2023-04-18T10:23:00.866Z,20.93
2023-04-18T10:25:50.640Z,21.93
2023-04-18T10:28:54.443Z,21.00
2023-04-18T10:31:43.973Z,22.33
2023-04-18T10:34:32.436Z,21.70
2023-04-18T10:37:20.778Z,22.83
2023-04-18T10:40:10.950Z,21.03
2023-04-18T10:42:59.517Z,22.07
2023-04-18T10:46:20.487Z,21.30
2023-04-18T10:49:18.164Z,22.27
2023-04-18T10:52:06.992Z,21.20
2023-04-18T10:55:11.828Z,21.97
2023-04-18T10:58:00.708Z,23.00
2023-04-18T11:00:49.600Z,21.87
2023-04-18T11:03:39.437Z,21.00
2023-04-18T11:06:27.945Z,22.23
2023-04-18T11:09:17.052Z,23.60
2023-04-18T11:12:07.490Z,21.40
2023-04-18T11:14:55.986Z,22.73
2023-04-18T11:17:45.060Z,21.33
2023-04-18T11:20:41.029Z,22.27
2023-04-18T11:23:29.380Z,20.30
2023-04-18T11:26:19.770Z,21.90
2023-04-18T11:29:08.112Z,21.57
2023-04-18T11:31:58.573Z,21.30
2023-04-18T11:34:47.231Z,20.47
2023-04-18T11:37:37.669Z,21.17
2023-04-18T11:40:26.180Z,21.53
2023-04-18T11:43:21.200Z,20.70
2023-04-18T11:46:09.660Z,21.67
2023-04-18T11:48:58.110Z,20.00
2023-04-18T11:51:48.000Z,20.80
2023-04-18T11:54:39.350Z,20.17
2023-04-18T11:57:28.339Z,22.33
2023-04-18T12:00:19.078Z,20.80
2023-04-18T12:03:11.886Z,20.97
2023-04-18T12:06:01.864Z,19.97
2023-04-18T12:08:50.901Z,20.30
2023-04-18T12:11:42.659Z,25.30
2023-04-18T12:14:31.446Z,20.90
2023-04-18T12:17:19.816Z,20.97
2023-04-18T12:20:10.055Z,21.73
2023-04-18T12:22:58.500Z,20.20
2023-04-18T12:25:46.808Z,20.20
2023-04-18T12:28:36.622Z,20.57
2023-04-18T12:31:25.051Z,21.57
2023-04-18T12:34:13.688Z,21.10
2023-04-18T12:37:03.664Z,21.90
2023-04-18T12:39:52.006Z,22.33
2023-04-18T12:42:41.324Z,20.57
2023-04-18T12:45:31.254Z,20.00
2023-04-18T12:48:19.616Z,21.80
2023-04-18T12:51:07.995Z,20.50
2023-04-18T12:53:56.462Z,20.00
2023-04-18T12:56:46.256Z,20.47
2023-04-18T12:59:34.558Z,21.57
2023-04-18T13:02:24.601Z,22.00
2023-04-18T13:05:14.422Z,24.53
2023-04-18T13:10:55.225Z,22.10
2023-04-18T13:13:43.646Z,21.00
2023-04-18T13:16:32.140Z,20.87
2023-04-18T13:19:22.364Z,20.93
2023-04-18T13:22:10.748Z,21.60
2023-04-18T13:24:59.111Z,22.20
2023-04-18T13:27:47.458Z,21.67
2023-04-18T13:30:36.654Z,22.00
2023-04-18T13:33:24.922Z,21.93
2023-04-18T13:36:14.630Z,22.70
2023-04-18T13:39:04.566Z,21.90
2023-04-18T13:41:54.400Z,21.30
2023-04-18T13:44:42.812Z,20.70
2023-04-18T13:47:31.345Z,21.80
2023-04-18T13:50:20.305Z,22.43
2023-04-18T13:53:10.062Z,23.80
2023-04-18T13:55:58.529Z,22.00
2023-04-18T13:58:46.850Z,21.93
2023-04-18T14:01:35.429Z,21.97
2023-04-18T14:04:24.778Z,22.10
2023-04-18T14:07:15.220Z,20.27
2023-04-18T14:10:05.645Z,21.87
2023-04-18T14:12:54.064Z,23.23
2023-04-18T14:15:42.448Z,21.60
2023-04-18T14:18:30.850Z,21.60
2023-04-18T14:21:19.183Z,23.20
2023-04-18T14:24:09.619Z,21.80
2023-04-18T14:26:59.462Z,22.53
2023-04-18T14:29:48.932Z,21.97
2023-04-18T14:32:37.287Z,20.90
2023-04-18T14:35:25.668Z,21.47
2023-04-18T14:38:14.078Z,20.83
2023-04-18T14:41:02.652Z,21.20
2023-04-18T14:43:52.322Z,22.30
2023-04-18T14:46:41.367Z,20.93
2023-04-18T14:49:29.951Z,20.70
2023-04-18T14:52:18.522Z,22.00
2023-04-18T14:55:08.005Z,21.40
2023-04-18T14:57:56.395Z,20.30
2023-04-18T15:00:46.229Z,20.43
2023-04-18T15:03:34.723Z,20.27
2023-04-18T15:06:23.569Z,21.80
2023-04-18T15:09:11.922Z,26.17
2023-04-18T15:12:00.286Z,20.67
2023-04-18T15:14:48.702Z,21.50
2023-04-18T15:17:38.402Z,20.20
2023-04-18T15:20:27.138Z,21.10
2023-04-18T15:23:15.904Z,22.10
2023-04-18T15:26:04.442Z,20.87
2023-04-18T15:28:55.055Z,21.33
2023-04-18T15:31:43.484Z,20.87
2023-04-18T15:34:34.190Z,21.40
2023-04-18T15:37:22.749Z,22.63
2023-04-18T15:40:16.203Z,20.23
2023-04-18T15:43:04.652Z,21.40
2023-04-18T15:45:53.197Z,21.13
2023-04-18T15:48:41.580Z,21.67
2023-04-18T15:51:31.336Z,20.50
2023-04-18T15:54:19.785Z,20.70
2023-04-18T15:57:08.191Z,20.03
2023-04-18T15:59:57.069Z,20.60
2023-04-18T16:02:46.103Z,20.50
2023-04-18T16:05:34.614Z,20.70
2023-04-18T16:08:24.350Z,19.97
2023-04-18T16:11:13.559Z,22.27
2023-04-18T16:14:01.942Z,22.40
2023-04-18T16:16:50.307Z,20.60
2023-04-18T16:19:39.924Z,21.50
2023-04-18T16:22:28.313Z,22.03
2023-04-18T16:25:18.956Z,21.07
2023-04-18T16:28:07.287Z,20.37
2023-04-18T16:30:55.873Z,20.73
2023-04-18T16:33:45.312Z,22.23
2023-04-18T16:36:35.382Z,20.03
2023-04-18T16:39:23.680Z,23.97
2023-04-18T16:42:15.466Z,23.13
2023-04-18T16:45:04.926Z,19.97
2023-04-18T16:47:54.657Z,20.43
2023-04-18T16:50:45.559Z,20.43
2023-04-18T16:53:33.878Z,20.87
2023-04-18T16:56:22.273Z,20.97
2023-04-18T16:59:11.982Z,20.53
2023-04-18T17:02:00.461Z,20.50
2023-04-18T17:04:49.604Z,20.07
2023-04-18T17:07:38.029Z,20.87
2023-04-18T17:10:26.512Z,20.00
2023-04-18T17:13:14.989Z,20.40
2023-04-18T17:16:05.077Z,21.43
2023-04-18T17:18:53.463Z,21.20
2023-04-18T17:21:41.812Z,20.40
2023-04-18T17:24:30.155Z,20.97
2023-04-18T17:27:18.529Z,20.47
2023-04-18T17:30:08.258Z,22.50
2023-04-18T17:32:58.783Z,20.23
2023-04-18T17:35:48.183Z,22.57
2023-04-18T17:38:36.749Z,20.20
2023-04-18T17:41:25.090Z,19.73
2023-04-18T17:44:13.709Z,20.60
2023-04-18T17:47:02.199Z,20.60
2023-04-18T17:49:52.055Z,22.60
2023-04-18T17:52:40.637Z,21.90
2023-04-18T17:55:29.031Z,19.67
2023-04-18T17:58:17.525Z,20.37
2023-04-18T18:01:15.151Z,19.43
2023-04-18T18:04:03.675Z,21.33
2023-04-18T18:06:57.286Z,19.83
2023-04-18T18:09:46.326Z,20.63
2023-04-18T18:12:36.200Z,20.30
2023-04-18T18:15:25.267Z,19.63
2023-04-18T18:18:13.705Z,20.23
2023-04-18T18:21:02.132Z,21.80
2023-04-18T18:23:51.828Z,21.70
2023-04-18T18:26:40.274Z,20.73
2023-04-18T18:29:28.619Z,19.87
2023-04-18T18:32:17.042Z,20.30
2023-04-18T18:35:06.193Z,19.47
2023-04-18T18:37:54.594Z,20.40
2023-04-18T18:40:44.342Z,18.97
2023-04-18T18:43:32.974Z,22.00
2023-04-18T18:46:21.362Z,19.30
2023-04-18T18:49:09.955Z,19.77
2023-04-18T18:51:58.441Z,20.63
2023-04-18T18:54:46.820Z,21.57
2023-04-18T18:57:37.570Z,20.57
2023-04-18T19:00:26.265Z,19.97
2023-04-18T19:03:15.736Z,19.40
2023-04-18T19:06:07.058Z,22.10
2023-04-18T19:08:55.476Z,21.10
2023-04-18T19:11:43.840Z,18.77
2023-04-18T19:14:33.888Z,20.10
2023-04-18T19:17:24.715Z,18.83
2023-04-18T19:20:13.224Z,20.83
2023-04-18T19:23:01.564Z,22.97
2023-04-18T19:25:50.025Z,21.43
2023-04-18T19:28:38.532Z,20.20
2023-04-18T19:31:28.767Z,20.30
2023-04-18T19:34:18.850Z,19.63
2023-04-18T19:37:07.297Z,18.93
2023-04-18T19:39:55.732Z,19.87
2023-04-18T19:42:44.147Z,18.90
2023-04-18T19:45:32.666Z,22.20
2023-04-18T19:48:22.512Z,20.53
2023-04-18T19:51:11.001Z,22.23
2023-04-18T19:53:59.449Z,19.77
2023-04-18T19:56:47.825Z,19.67
2023-04-18T19:59:36.174Z,21.83
2023-04-18T20:02:24.708Z,19.60
2023-04-18T20:05:14.840Z,18.20
2023-04-18T20:08:03.232Z,19.60
2023-04-18T20:10:51.621Z,18.60
2023-04-18T20:13:40.319Z,18.40
2023-04-18T20:16:29.049Z,17.90
2023-04-18T20:19:17.890Z,20.10
2023-04-18T20:22:07.934Z,18.63
2023-04-18T20:24:57.315Z,18.53
2023-04-18T20:27:45.754Z,20.33
2023-04-18T20:30:34.922Z,21.10
2023-04-18T20:33:23.322Z,20.73
2023-04-18T20:36:11.699Z,19.10
2023-04-18T20:39:02.358Z,18.50
2023-04-18T20:41:51.463Z,19.83
2023-04-18T20:44:40.258Z,19.80
2023-04-18T20:47:28.668Z,18.17
2023-04-18T20:50:18.280Z,18.73
2023-04-18T20:53:06.777Z,19.60
2023-04-18T20:55:56.491Z,17.63
2023-04-18T20:58:44.890Z,18.00
2023-04-18T21:01:33.610Z,19.17
2023-04-18T21:04:24.689Z,17.90
2023-04-18T21:07:13.081Z,18.53
2023-04-18T21:10:01.445Z,20.87
2023-04-18T21:12:51.221Z,18.63
2023-04-18T21:15:39.707Z,20.13
2023-04-18T21:18:28.104Z,20.03
2023-04-18T21:21:16.495Z,19.57
2023-04-18T21:24:05.701Z,17.90
2023-04-18T21:26:54.120Z,20.00
2023-04-18T21:29:43.823Z,19.77
2023-04-18T21:32:32.226Z,19.63
2023-04-18T21:35:22.599Z,18.40
2023-04-18T21:38:12.555Z,19.47
2023-04-18T21:41:00.880Z,18.87
2023-04-18T21:43:49.418Z,19.67
2023-04-18T21:46:39.131Z,19.20
2023-04-18T21:49:27.527Z,20.10
2023-04-18T21:52:16.936Z,18.40
2023-04-18T21:55:06.200Z,18.67
2023-04-18T21:57:55.198Z,19.53
2023-04-18T22:00:43.595Z,17.97
2023-04-18T22:03:34.605Z,18.23
2023-04-18T22:06:23.584Z,19.00
2023-04-18T22:09:12.856Z,17.77
2023-04-18T22:12:03.420Z,19.20
2023-04-18T22:14:52.842Z,18.33
2023-04-18T22:17:41.821Z,19.50
2023-04-18T22:20:31.735Z,18.23
2023-04-18T22:23:20.083Z,18.63
2023-04-18T22:26:08.435Z,19.23
2023-04-18T22:28:56.799Z,19.40
2023-04-18T22:31:45.204Z,19.27
2023-04-18T22:34:33.621Z,20.97
2023-04-18T22:37:23.366Z,18.07
2023-04-18T22:40:12.871Z,19.57
2023-04-18T22:43:01.273Z,17.70
2023-04-18T22:45:49.682Z,19.20
2023-04-18T22:48:38.444Z,21.07
2023-04-18T22:51:28.692Z,18.97
2023-04-18T22:54:18.473Z,21.70
2023-04-18T22:57:06.822Z,19.00
2023-04-18T22:59:55.156Z,19.60
2023-04-18T23:02:43.666Z,20.20
2023-04-18T23:05:32.138Z,23.57
2023-04-18T23:08:22.568Z,19.40
2023-04-18T23:11:12.400Z,17.60
2023-04-18T23:14:00.816Z,20.23
2023-04-18T23:16:49.343Z,19.00
2023-04-18T23:19:37.700Z,19.23
2023-04-18T23:22:26.054Z,23.43
2023-04-18T23:25:14.544Z,19.27
2023-04-18T23:28:04.375Z,22.00
2023-04-18T23:30:53.287Z,18.13
2023-04-18T23:33:41.628Z,21.20
2023-04-18T23:36:29.937Z,21.10
2023-04-18T23:39:18.612Z,20.57
2023-04-18T23:42:07.044Z,19.87
2023-04-18T23:44:57.821Z,23.00
2023-04-18T23:47:46.352Z,21.67
2023-04-18T23:50:35.336Z,19.50
2023-04-18T23:53:24.884Z,21.43
2023-04-18T23:56:13.370Z,18.33
2023-04-18T23:59:01.704Z,19.47
